Terminal Aerodrome Forecast
Issued by NWS Wilmington, OH

Current Version | Previous Version | Graphics & Text | Print | Product List | Glossary On
Versions: 1 2 3 4 5 6 7 8 9 10 11 12 13 14 15
000
FTUS41 KILN 210500
TAFCMH
TAF
KCMH 210534Z 2106/2206 00000KT P6SM OVC025
     FM210700 00000KT 4SM BR BKN025
     FM211300 00000KT P6SM BKN025
     FM211800 12004KT P6SM SCT025=

USA.gov is the U.S. government's official web portal to all federal, state and local government web resources and services.